Time;durP1;ratioP1;P1;durP2;ratioP2;P2;SDS_P1;SDS_P2;PMS_P1;PMS_P2;Temp;Humidity;BMP_temperature;BMP_pressure;BME280_temperature;BME280_humidity;BME280_pressure;Samples;Min_cycle;Max_cycle;Signal;HPM_P1;HPM_P2
2022/08/22 00:00:54;;;;;;;5.80;5.25;;;;;;;20.04;74.28;94260.16;5097052;28;20238;-68
2022/08/22 00:03:35;;;;;;;5.60;5.10;;;;;;;20.08;74.36;94255.25;5130541;27;20249;-67
2022/08/22 00:06:15;;;;;;;5.63;5.13;;;;;;;20.07;74.57;94256.50;5096800;28;20184;-67
2022/08/22 00:08:50;;;;;;;5.68;5.18;;;;;;;20.04;74.66;94257.34;5095864;28;20188;-68
2022/08/22 00:11:24;;;;;;;6.78;6.18;;;;;;;20.04;73.96;94255.34;5097011;28;20212;-68
2022/08/22 00:13:56;;;;;;;6.75;6.15;;;;;;;20.03;74.36;94255.78;5096945;28;20230;-68
2022/08/22 00:16:28;;;;;;;7.55;6.82;;;;;;;20.03;74.54;94256.56;5130881;27;20199;-68
2022/08/22 00:19:08;;;;;;;7.82;7.03;;;;;;;20.01;74.45;94250.63;5096306;28;20184;-68
2022/08/22 00:21:40;;;;;;;7.53;6.75;;;;;;;20.00;74.59;94260.22;5096762;28;20234;-68
2022/08/22 00:24:15;;;;;;;8.20;7.50;;;;;;;19.99;74.67;94258.66;5096714;28;20189;-68
2022/08/22 00:26:47;;;;;;;8.68;7.88;;;;;;;19.98;74.25;94254.28;5095925;28;20215;-67
2022/08/22 00:29:18;;;;;;;8.07;7.40;;;;;;;19.99;74.06;94247.47;5096550;28;20231;-67
2022/08/22 00:31:49;;;;;;;8.50;7.68;;;;;;;19.97;74.48;94249.91;5095795;28;20273;-67
2022/08/22 00:34:25;;;;;;;8.60;7.72;;;;;;;19.97;74.89;94244.31;5095643;28;20201;-67
2022/08/22 00:37:00;;;;;;;8.50;7.70;;;;;;;19.98;75.29;94242.31;5095694;28;20203;-67
2022/08/22 00:39:29;;;;;;;8.27;7.57;;;;;;;19.96;74.46;94243.53;5129803;27;20281;-67
2022/08/22 00:42:12;;;;;;;8.18;7.47;;;;;;;19.96;75.05;94245.53;5096307;28;20192;-67
2022/08/22 00:45:22;;;;;;;7.93;7.22;;;;;;;19.94;75.31;94250.78;5096474;28;20188;-67
2022/08/22 00:47:57;;;;;;;8.40;7.70;;;;;;;19.90;75.21;94250.09;5095992;28;20195;-67
2022/08/22 00:51:02;;;;;;;8.60;7.80;;;;;;;19.90;74.37;94244.50;5096069;28;20293;-67
2022/08/22 00:53:41;;;;;;;8.93;8.07;;;;;;;19.88;74.15;94241.31;5095917;28;20216;-67
2022/08/22 00:56:35;;;;;;;7.90;7.10;;;;;;;19.91;74.51;94238.44;5096200;28;20184;-67
2022/08/22 00:59:47;;;;;;;9.65;8.75;;;;;;;19.94;74.79;94228.41;5091862;28;20204;-67
2022/08/22 01:02:26;;;;;;;8.88;8.02;;;;;;;19.94;75.04;94228.41;5096053;28;20243;-67
2022/08/22 01:05:13;;;;;;;9.38;8.55;;;;;;;19.91;75.32;94238.44;5096009;28;20196;-67
2022/08/22 01:07:54;;;;;;;8.40;7.53;;;;;;;19.91;75.66;94232.84;5095242;28;20203;-68
2022/08/22 01:10:33;;;;;;;8.43;7.72;;;;;;;19.91;75.61;94240.47;5095395;28;20214;-70
2022/08/22 01:13:15;;;;;;;8.80;8.07;;;;;;;19.90;75.35;94238.88;5129036;27;20205;-70
2022/08/22 01:15:42;;;;;;;8.45;7.65;;;;;;;19.86;75.72;94229.75;5128996;27;20196;-70
2022/08/22 01:18:37;;;;;;;8.70;7.90;;;;;;;19.85;74.83;94228.19;5095753;28;20199;-69
2022/08/22 01:21:25;;;;;;;9.02;8.02;;;;;;;19.89;74.88;94235.28;5094657;28;20204;-69
2022/08/22 01:24:25;;;;;;;8.82;8.02;;;;;;;19.87;75.29;94232.16;5095653;28;20184;-69
2022/08/22 01:27:37;;;;;;;9.30;8.10;;;;;;;19.85;76.07;94237.38;5094728;28;20203;-69
2022/08/22 01:30:51;;;;;;;11.13;9.00;;;;;;;19.81;75.24;94231.06;5094826;28;20204;-69
2022/08/22 01:33:45;;;;;;;9.15;8.38;;;;;;;19.81;75.56;94230.28;5070571;28;20243;-69
2022/08/22 01:36:25;;;;;;;9.18;8.38;;;;;;;19.81;74.56;94235.88;5095638;28;20192;-69
2022/08/22 01:39:46;;;;;;;9.32;8.43;;;;;;;19.80;74.98;94248.31;5095448;28;20184;-69
2022/08/22 01:42:55;;;;;;;9.98;9.07;;;;;;;19.78;75.30;94250.72;5036675;28;20206;-69
2022/08/22 01:45:38;;;;;;;9.82;8.93;;;;;;;19.76;75.49;94247.59;5084333;28;20211;-69
2022/08/22 01:48:13;;;;;;;10.13;9.07;;;;;;;19.76;74.79;94248.38;5094208;28;20631;-69
2022/08/22 01:50:44;;;;;;;10.30;9.30;;;;;;;19.75;75.30;94243.19;5095153;28;20263;-69
2022/08/22 01:53:17;;;;;;;10.23;9.30;;;;;;;19.73;75.47;94245.66;5095265;28;20334;-69
2022/08/22 01:55:59;;;;;;;9.82;8.93;;;;;;;19.69;74.82;94246.50;5128501;28;20192;-67
2022/08/22 01:58:29;;;;;;;10.10;9.10;;;;;;;19.65;75.57;94247.81;5094656;28;20199;-69
2022/08/22 02:01:15;;;;;;;10.48;9.48;;;;;;;19.63;76.02;94248.22;5095403;28;20183;-68
2022/08/22 02:03:55;;;;;;;10.88;9.73;;;;;;;19.62;76.03;94240.25;5094945;28;20622;-68
2022/08/22 02:06:31;;;;;;;10.98;8.65;;;;;;;19.62;75.68;94243.03;5094562;28;20196;-68
2022/08/22 02:09:04;;;;;;;9.43;8.52;;;;;;;19.64;75.79;94241.41;5094621;28;20215;-68
2022/08/22 02:11:40;;;;;;;10.60;9.57;;;;;;;19.64;75.55;94238.59;5096166;28;20196;-68
2022/08/22 02:14:17;;;;;;;9.98;8.98;;;;;;;19.63;75.42;94242.63;5099229;28;20196;-68
2022/08/22 02:16:48;;;;;;;10.00;9.02;;;;;;;19.60;75.79;94240.66;5098945;28;20618;-68
2022/08/22 02:19:38;;;;;;;10.73;9.70;;;;;;;19.55;76.16;94241.19;5098496;28;20294;-67
2022/08/22 02:22:13;;;;;;;10.30;9.30;;;;;;;19.54;75.79;94239.63;5099053;28;20188;-67
2022/08/22 02:24:51;;;;;;;15.52;9.55;;;;;;;19.51;75.95;94240.47;5099043;28;20188;-67
2022/08/22 02:27:26;;;;;;;9.75;8.85;;;;;;;19.47;75.91;94239.75;5098109;28;20200;-67
2022/08/22 02:30:02;;;;;;;10.45;9.15;;;;;;;19.47;75.37;94239.75;5097937;28;20194;-67
2022/08/22 02:32:36;;;;;;;10.93;9.88;;;;;;;19.47;75.62;94248.16;5097984;28;20223;-68
2022/08/22 02:35:06;;;;;;;9.88;8.93;;;;;;;19.47;75.49;94242.56;5098847;28;20188;-67
2022/08/22 02:37:37;;;;;;;10.35;9.27;;;;;;;19.45;75.63;94242.19;5098857;28;20180;-68
2022/08/22 02:40:10;;;;;;;9.77;8.85;;;;;;;19.45;75.83;94244.97;5097726;28;20205;-68
2022/08/22 02:42:43;;;;;;;10.32;9.32;;;;;;;19.45;76.21;94242.19;5098456;28;20185;-68
2022/08/22 02:45:22;;;;;;;9.63;8.68;;;;;;;19.40;75.63;94240.69;5098818;28;20185;-67
2022/08/22 02:48:05;;;;;;;10.75;9.30;;;;;;;19.38;75.98;94243.09;5098262;28;20206;-68
2022/08/22 02:50:38;;;;;;;10.23;9.23;;;;;;;19.39;75.64;94238.31;5080461;28;20305;-68
2022/08/22 02:53:12;;;;;;;10.32;8.93;;;;;;;19.36;75.82;94244.78;5098303;28;20212;-68
2022/08/22 02:55:47;;;;;;;10.48;9.48;;;;;;;19.35;75.94;94248.78;5098454;28;20212;-69
2022/08/22 02:58:20;;;;;;;9.27;8.38;;;;;;;19.33;76.14;94263.19;5098550;28;20188;-69
2022/08/22 03:00:51;;;;;;;10.02;8.98;;;;;;;19.28;76.03;94254.50;5098533;28;20192;-69
2022/08/22 03:03:24;;;;;;;10.35;9.35;;;;;;;19.28;75.89;94248.91;5098459;28;20181;-69
2022/08/22 03:05:58;;;;;;;10.25;9.10;;;;;;;19.27;75.22;94248.13;5098188;28;20192;-69
2022/08/22 03:08:27;;;;;;;10.82;9.77;;;;;;;19.27;75.99;94247.34;5098386;28;20596;-69
2022/08/22 03:11:08;;;;;;;9.50;8.57;;;;;;;19.24;75.82;94252.59;5097577;28;20205;-69
2022/08/22 03:13:40;;;;;;;9.85;8.85;;;;;;;19.23;75.64;94245.41;5097092;28;20231;-67
2022/08/22 03:16:14;;;;;;;9.73;8.82;;;;;;;19.21;75.49;94249.84;5098104;28;20284;-67
2022/08/22 03:18:50;;;;;;;9.73;8.57;;;;;;;19.18;75.65;94261.88;5097688;28;20193;-67
2022/08/22 03:21:25;;;;;;;10.20;9.20;;;;;;;19.15;75.72;94262.75;5096867;28;20204;-68
2022/08/22 03:23:55;;;;;;;10.38;9.38;;;;;;;19.13;75.22;94265.94;5096499;28;20184;-68
2022/08/22 03:26:26;;;;;;;10.00;9.05;;;;;;;19.12;74.78;94260.78;5097857;28;20189;-67
2022/08/22 03:28:56;;;;;;;10.27;9.18;;;;;;;19.10;75.62;94257.63;5097967;28;20189;-67
2022/08/22 03:31:30;;;;;;;10.48;9.38;;;;;;;19.13;75.86;94253.97;5097359;28;20553;-67
2022/08/22 03:34:18;;;;;;;10.27;9.27;;;;;;;19.17;75.98;94260.28;5096687;28;20307;-67
2022/08/22 03:36:48;;;;;;;9.98;9.07;;;;;;;19.17;76.09;94257.50;5097027;28;20598;-67
2022/08/22 03:39:19;;;;;;;10.45;9.45;;;;;;;19.17;75.11;94263.91;5096853;28;20212;-67
2022/08/22 03:42:15;;;;;;;10.48;9.52;;;;;;;19.17;75.61;94272.28;5096715;28;20204;-67
2022/08/22 03:45:22;;;;;;;9.75;8.93;;;;;;;19.14;75.74;94267.53;5097793;28;20177;-67
2022/08/22 03:48:16;;;;;;;10.15;9.02;;;;;;;19.12;76.10;94258.78;5096541;28;20197;-68
2022/08/22 03:51:14;;;;;;;9.70;8.82;;;;;;;19.19;75.50;94258.66;5096734;28;20240;-67
2022/08/22 03:54:20;;;;;;;11.23;10.13;;;;;;;19.17;74.74;94258.31;5096747;28;20212;-67
2022/08/22 03:57:20;;;;;;;9.38;8.57;;;;;;;19.17;74.54;94252.72;5088566;28;20215;-68
2022/08/22 04:00:32;;;;;;;11.10;9.95;;;;;;;19.18;74.33;94253.50;5097195;28;20253;-68
2022/08/22 04:03:30;;;;;;;10.23;9.32;;;;;;;19.15;74.55;94249.56;5077258;28;20231;-68
2022/08/22 04:06:26;;;;;;;10.68;9.57;;;;;;;19.18;74.45;94247.91;5095805;28;20234;-68
2022/08/22 04:09:28;;;;;;;10.98;9.85;;;;;;;19.18;74.51;94243.09;5096677;28;20218;-68
2022/08/22 04:12:47;;;;;;;10.60;9.60;;;;;;;19.20;74.74;94251.06;5096109;28;20203;-68
2022/08/22 04:15:53;;;;;;;10.65;9.55;;;;;;;19.23;75.32;94261.38;5097020;28;20187;-69
2022/08/22 04:18:55;;;;;;;11.05;9.95;;;;;;;19.27;75.05;94255.72;5096093;28;20204;-67
2022/08/22 04:21:49;;;;;;;10.30;9.20;;;;;;;19.26;75.84;94254.16;5096575;28;20199;-66
2022/08/22 04:24:45;;;;;;;10.48;9.38;;;;;;;19.27;75.63;94264.09;5096938;28;20206;-67
2022/08/22 04:27:18;;;;;;;10.40;9.32;;;;;;;19.30;75.58;94254.88;5096428;28;20195;-69
2022/08/22 04:29:52;;;;;;;10.52;9.43;;;;;;;19.33;75.09;94254.81;5096595;28;20204;-67
2022/08/22 04:32:26;;;;;;;11.43;10.32;;;;;;;19.33;75.30;94251.22;5096005;28;20192;-67
2022/08/22 04:34:57;;;;;;;11.00;9.73;;;;;;;19.34;75.10;94259.16;5095740;28;20188;-68
2022/08/22 04:37:32;;;;;;;10.85;9.13;;;;;;;19.35;75.49;94257.94;5096629;28;20184;-68
2022/08/22 04:40:06;;;;;;;10.50;9.30;;;;;;;19.36;75.36;94259.53;5096379;28;20245;-68
2022/08/22 04:42:36;;;;;;;10.10;9.10;;;;;;;19.39;75.05;94266.25;5095650;28;20193;-68
2022/08/22 04:45:09;;;;;;;10.15;9.15;;;;;;;19.39;75.21;94263.47;5096036;28;20180;-67
2022/08/22 04:47:39;;;;;;;9.70;8.80;;;;;;;19.43;75.28;94264.22;5095876;28;20181;-67
2022/08/22 04:50:10;;;;;;;10.93;9.65;;;;;;;19.47;74.92;94262.13;5094921;28;20243;-67
2022/08/22 04:52:49;;;;;;;9.82;8.82;;;;;;;19.48;74.54;94260.91;5095886;28;20204;-67
2022/08/22 04:55:26;;;;;;;10.35;9.27;;;;;;;19.49;74.95;94256.88;5095424;28;20196;-67
2022/08/22 04:57:58;;;;;;;10.15;9.15;;;;;;;19.51;75.60;94271.22;5094991;28;20212;-68
2022/08/22 05:00:36;;;;;;;10.23;9.02;;;;;;;19.51;75.14;94271.22;5095288;28;20196;-68
2022/08/22 05:03:10;;;;;;;9.57;8.65;;;;;;;19.54;75.14;94269.59;5095942;28;20173;-70
2022/08/22 05:05:39;;;;;;;10.82;9.73;;;;;;;19.61;74.55;94266.66;5096150;28;20191;-70
2022/08/22 05:08:10;;;;;;;9.70;8.77;;;;;;;19.59;74.85;94269.06;5096614;28;20195;-70
2022/08/22 05:10:40;;;;;;;10.40;9.35;;;;;;;19.57;75.01;94274.31;5096345;28;20195;-70
2022/08/22 05:13:09;;;;;;;9.85;8.85;;;;;;;19.59;75.05;94289.44;5095777;28;20591;-71
2022/08/22 05:15:43;;;;;;;9.88;8.88;;;;;;;19.61;75.45;94287.03;5095506;28;20200;-70
2022/08/22 05:18:13;;;;;;;9.77;8.75;;;;;;;19.62;75.14;94288.63;5096798;28;20195;-70
2022/08/22 05:20:41;;;;;;;9.20;8.23;;;;;;;19.62;75.33;94283.03;5095825;28;20188;-69
2022/08/22 05:23:14;;;;;;;10.95;9.65;;;;;;;19.64;75.37;94286.16;5096278;28;20199;-70
2022/08/22 05:25:42;;;;;;;11.02;8.85;;;;;;;19.68;74.92;94294.47;5097852;28;20196;-71
2022/08/22 05:28:14;;;;;;;10.55;9.48;;;;;;;19.66;75.04;94289.31;5096835;28;20226;-69
2022/08/22 05:30:44;;;;;;;10.70;9.48;;;;;;;19.65;75.37;94301.75;5095531;28;20200;-69
2022/08/22 05:33:18;;;;;;;9.88;8.60;;;;;;;19.65;75.78;94289.78;5096844;28;20208;-69
2022/08/22 05:35:48;;;;;;;9.55;8.52;;;;;;;19.66;75.58;94297.72;5097369;28;20211;-69
2022/08/22 05:38:19;;;;;;;11.35;8.95;;;;;;;19.73;75.57;94302.38;5096339;28;20212;-69
2022/08/22 05:40:51;;;;;;;11.73;9.35;;;;;;;19.74;76.00;94303.97;5095526;28;20204;-69
2022/08/22 05:43:19;;;;;;;10.50;9.32;;;;;;;19.73;76.35;94307.97;5096218;28;20192;-69
2022/08/22 05:45:50;;;;;;;9.75;8.77;;;;;;;19.70;75.62;94304.03;5095836;28;20196;-69
2022/08/22 05:48:20;;;;;;;9.65;8.75;;;;;;;19.70;75.88;94304.03;5096668;28;20192;-69
2022/08/22 05:50:49;;;;;;;10.85;9.48;;;;;;;19.75;75.55;94313.91;5097173;28;20304;-69
2022/08/22 05:53:25;;;;;;;9.48;8.55;;;;;;;19.76;75.63;94323.91;5094907;28;20216;-67
2022/08/22 05:55:57;;;;;;;11.05;9.82;;;;;;;19.75;75.57;94322.31;5096070;28;20486;-68
2022/08/22 05:58:36;;;;;;;10.52;9.52;;;;;;;19.72;75.67;94328.78;5097496;28;20196;-68
2022/08/22 06:01:15;;;;;;;10.10;9.10;;;;;;;19.74;76.08;94337.53;5097532;28;20200;-70
2022/08/22 06:03:51;;;;;;;9.73;8.82;;;;;;;19.75;76.19;94338.31;5096285;28;20200;-70
2022/08/22 06:06:19;;;;;;;10.65;9.55;;;;;;;19.79;76.22;94337.03;5096399;28;20184;-67
2022/08/22 06:08:53;;;;;;;9.52;8.52;;;;;;;19.82;75.86;94335.38;5097225;28;20185;-67
2022/08/22 06:11:26;;;;;;;9.88;8.98;;;;;;;19.85;76.51;94334.53;5097084;28;20203;-68
2022/08/22 06:13:57;;;;;;;10.43;9.40;;;;;;;19.90;76.00;94331.25;5096941;28;20219;-68
2022/08/22 06:16:34;;;;;;;10.65;9.52;;;;;;;19.95;75.83;94330.72;5095493;28;20196;-68
2022/08/22 06:19:03;;;;;;;9.63;8.77;;;;;;;19.97;74.77;94331.06;5097622;28;20185;-69
2022/08/22 06:21:35;;;;;;;9.93;9.02;;;;;;;20.00;75.08;94333.00;5094699;28;20193;-69
2022/08/22 06:24:05;;;;;;;10.45;9.45;;;;;;;19.99;74.80;94342.63;5095856;28;20189;-71
2022/08/22 06:26:35;;;;;;;10.15;9.15;;;;;;;19.99;75.13;94336.25;5095647;28;20181;-69
2022/08/22 06:29:04;;;;;;;10.25;9.25;;;;;;;20.01;74.84;94331.81;5094747;28;20204;-69
2022/08/22 06:31:39;;;;;;;9.93;8.93;;;;;;;20.04;74.57;94338.53;5095186;28;20204;-68
2022/08/22 06:34:10;;;;;;;9.85;8.68;;;;;;;20.02;74.92;94340.97;5095170;28;20220;-72
2022/08/22 06:36:40;;;;;;;9.57;8.68;;;;;;;20.02;74.69;94338.97;5094580;28;20616;-69
2022/08/22 06:39:16;;;;;;;9.77;8.88;;;;;;;20.03;74.49;94337.75;5094678;28;20527;-68
2022/08/22 06:41:48;;;;;;;10.15;9.15;;;;;;;20.06;74.24;94336.09;5094987;28;20195;-68
2022/08/22 06:44:19;;;;;;;9.65;8.75;;;;;;;20.10;74.04;94334.78;5094281;28;20193;-68
2022/08/22 06:46:48;;;;;;;10.48;9.45;;;;;;;20.17;73.84;94337.44;5094885;28;20253;-68
2022/08/22 06:49:15;;;;;;;10.18;9.18;;;;;;;20.25;74.08;94334.50;5094761;28;20644;-70
2022/08/22 06:51:44;;;;;;;9.85;8.95;;;;;;;20.33;73.42;94333.88;5095321;28;20273;-70
2022/08/22 06:54:15;;;;;;;9.50;8.60;;;;;;;20.36;72.70;94333.03;5095465;28;20211;-71
2022/08/22 06:56:43;;;;;;;9.80;8.27;;;;;;;20.35;73.16;94333.47;5094964;28;20192;-70
2022/08/22 06:59:14;;;;;;;9.63;8.75;;;;;;;20.36;73.06;94335.03;5097643;28;20651;-69
2022/08/22 07:01:47;;;;;;;9.25;8.35;;;;;;;20.39;73.52;94342.56;5099001;28;20180;-69
2022/08/22 07:04:16;;;;;;;8.80;7.97;;;;;;;20.42;73.56;94328.50;5098404;28;20188;-69
2022/08/22 07:06:48;;;;;;;8.10;7.25;;;;;;;20.44;72.79;94328.88;5099204;28;20195;-70
2022/08/22 07:09:23;;;;;;;8.90;8.10;;;;;;;20.46;72.37;94338.84;5098311;28;20204;-70
2022/08/22 07:11:55;;;;;;;8.25;7.53;;;;;;;20.47;72.46;94335.59;5099592;28;20204;-70
2022/08/22 07:14:28;;;;;;;8.65;7.75;;;;;;;20.51;72.89;94335.53;5099345;28;20230;-69
2022/08/22 07:16:57;;;;;;;8.13;7.20;;;;;;;20.52;72.28;94343.53;5099197;28;20192;-70
2022/08/22 07:19:30;;;;;;;9.52;7.57;;;;;;;20.53;71.75;94335.91;5098121;28;20219;-69
2022/08/22 07:21:58;;;;;;;8.07;7.28;;;;;;;20.54;71.95;94343.06;5098203;28;20192;-69
2022/08/22 07:24:27;;;;;;;8.18;7.38;;;;;;;20.55;72.05;94345.47;5098445;28;20628;-69
2022/08/22 07:27:04;;;;;;;8.38;7.55;;;;;;;20.57;71.43;94348.59;5098938;28;20181;-69
2022/08/22 07:29:43;;;;;;;8.85;8.05;;;;;;;20.60;71.29;94346.94;5098893;28;20546;-70
2022/08/22 07:32:14;;;;;;;8.30;7.50;;;;;;;20.66;71.35;94346.00;5098635;28;20196;-70
2022/08/22 07:34:55;;;;;;;8.95;8.05;;;;;;;20.72;70.97;94348.28;5099041;28;20218;-69
2022/08/22 07:37:27;;;;;;;8.43;7.63;;;;;;;20.75;71.30;94347.41;5099056;28;20176;-69
2022/08/22 07:40:02;;;;;;;9.65;8.38;;;;;;;20.82;71.58;94350.81;5098644;28;20185;-69
2022/08/22 07:42:39;;;;;;;8.35;7.57;;;;;;;20.83;70.77;94349.59;5097792;28;20635;-69
2022/08/22 07:45:09;;;;;;;8.70;7.90;;;;;;;20.88;70.34;94342.69;5097803;28;20199;-69
2022/08/22 07:47:49;;;;;;;9.85;8.80;;;;;;;20.92;70.62;94346.19;5097677;28;20197;-69
2022/08/22 07:50:21;;;;;;;9.05;8.15;;;;;;;20.96;70.05;94348.91;5097795;28;20244;-70
2022/08/22 07:52:49;;;;;;;8.55;7.75;;;;;;;20.98;70.54;94344.44;5099132;28;20180;-70
2022/08/22 07:55:21;;;;;;;10.20;8.50;;;;;;;21.02;70.48;94347.94;5097751;28;20212;-70
2022/08/22 07:57:53;;;;;;;9.13;8.23;;;;;;;21.07;70.07;94349.44;5097069;28;20228;-70
2022/08/22 08:03:09;;;;;;;9.70;8.77;;;;;;;21.16;70.81;94341.97;5097751;28;20312;-69
2022/08/22 08:05:39;;;;;;;8.77;7.90;;;;;;;21.24;69.61;94334.19;5097466;28;20254;-69
2022/08/22 08:08:19;;;;;;;9.38;8.48;;;;;;;21.35;69.52;94333.91;5097068;28;20219;-70
2022/08/22 08:10:49;;;;;;;10.00;8.98;;;;;;;21.51;70.34;94335.91;5098613;28;20191;-69
2022/08/22 08:13:22;;;;;;;10.70;9.57;;;;;;;21.63;69.32;94335.97;5098838;28;20228;-69
2022/08/22 08:15:51;;;;;;;10.13;9.15;;;;;;;21.72;68.91;94340.97;5097953;28;20207;-70
2022/08/22 08:18:20;;;;;;;11.60;10.50;;;;;;;21.70;67.73;94340.59;5098967;28;20195;-69
2022/08/22 08:20:56;;;;;;;11.25;8.95;;;;;;;21.65;68.08;94334.75;5098774;28;20214;-70
2022/08/22 08:23:25;;;;;;;8.80;8.00;;;;;;;21.60;67.09;94334.03;5099238;28;20180;-70
2022/08/22 08:26:01;;;;;;;9.48;8.48;;;;;;;21.65;67.59;94332.72;5097861;28;20608;-70
2022/08/22 08:28:33;;;;;;;9.25;8.38;;;;;;;21.68;68.16;94329.06;5098293;28;20199;-70
2022/08/22 08:31:07;;;;;;;9.38;8.40;;;;;;;21.67;68.11;94330.25;5098938;28;20188;-70
2022/08/22 08:33:36;;;;;;;10.15;8.90;;;;;;;21.69;68.03;94329.84;5097378;28;20196;-70
2022/08/22 08:36:08;;;;;;;10.23;8.88;;;;;;;21.69;68.16;94327.81;5097963;28;20211;-69
2022/08/22 08:38:42;;;;;;;11.43;10.13;;;;;;;21.70;68.39;94334.22;5098654;28;20184;-70
2022/08/22 08:41:29;;;;;;;11.27;10.10;;;;;;;21.73;68.56;94339.72;5098400;28;20191;-70
2022/08/22 08:44:02;;;;;;;11.65;10.35;;;;;;;21.78;68.89;94332.78;5096255;28;20203;-70
2022/08/22 08:46:56;;;;;;;12.43;10.80;;;;;;;21.85;68.70;94332.56;5097263;28;20201;-69
2022/08/22 08:49:39;;;;;;;10.27;9.20;;;;;;;21.86;67.32;94322.94;5097296;28;20235;-69
2022/08/22 08:52:46;;;;;;;10.10;9.07;;;;;;;21.96;67.21;94321.81;5096548;28;20199;-69
2022/08/22 08:55:20;;;;;;;9.65;8.73;;;;;;;22.15;67.75;94324.94;5079097;28;20232;-68
2022/08/22 08:58:00;;;;;;;9.52;8.50;;;;;;;22.25;67.82;94316.19;5097426;28;20659;-68
2022/08/22 09:00:39;;;;;;;9.32;8.43;;;;;;;22.32;66.38;94315.19;5096501;28;20200;-69
2022/08/22 09:03:08;;;;;;;10.52;8.85;;;;;;;22.29;65.68;94316.88;5097021;28;20528;-69
2022/08/22 09:05:50;;;;;;;9.15;8.18;;;;;;;22.25;64.93;94326.66;5095794;28;20210;-70
2022/08/22 09:09:00;;;;;;;9.43;8.52;;;;;;;22.27;65.38;94319.34;5095754;28;20196;-69
2022/08/22 09:11:57;;;;;;;9.27;8.38;;;;;;;22.30;64.76;94318.47;5076897;28;20284;-70
2022/08/22 09:14:38;;;;;;;9.82;8.82;;;;;;;22.28;65.05;94312.50;5096585;28;20212;-70
2022/08/22 09:17:51;;;;;;;10.10;8.95;;;;;;;22.22;64.44;94311.50;5096201;28;20194;-70
2022/08/22 09:20:46;;;;;;;9.77;8.88;;;;;;;22.16;64.63;94312.50;5096244;28;20200;-69
2022/08/22 09:23:39;;;;;;;13.35;9.10;;;;;;;22.17;65.34;94314.84;5078556;28;20210;-70
2022/08/22 09:26:14;;;;;;;10.05;8.98;;;;;;;22.18;65.66;94324.03;5095436;28;20208;-69
2022/08/22 09:28:52;;;;;;;10.18;9.18;;;;;;;22.17;65.73;94325.28;5096000;28;20199;-69
2022/08/22 09:31:35;;;;;;;10.70;9.65;;;;;;;22.18;66.41;94318.44;5096531;28;20241;-69
2022/08/22 09:34:09;;;;;;;10.20;9.30;;;;;;;22.19;66.39;94318.00;5094888;28;20212;-69
2022/08/22 09:36:47;;;;;;;10.88;8.88;;;;;;;22.23;65.94;94312.28;5096818;28;20220;-70
2022/08/22 09:39:17;;;;;;;10.15;9.23;;;;;;;22.27;66.15;94318.56;5095859;28;20192;-70
2022/08/22 09:41:58;;;;;;;9.18;8.27;;;;;;;22.32;66.20;94306.78;5096120;28;20207;-70
2022/08/22 09:44:33;;;;;;;11.43;9.85;;;;;;;22.36;66.30;94310.25;5096807;28;20198;-70
2022/08/22 09:47:09;;;;;;;10.95;9.95;;;;;;;22.41;65.72;94308.94;5096409;28;20196;-69
2022/08/22 09:49:47;;;;;;;11.20;9.65;;;;;;;22.48;65.15;94312.31;5095737;28;20238;-70
2022/08/22 09:52:22;;;;;;;9.32;8.25;;;;;;;22.64;65.62;94302.19;5095485;28;20241;-69
2022/08/22 09:54:54;;;;;;;9.98;8.55;;;;;;;22.82;66.17;94302.41;5095666;28;20215;-72
2022/08/22 09:57:32;;;;;;;10.73;9.63;;;;;;;22.87;65.16;94292.63;5095750;28;20200;-70
2022/08/22 10:00:21;;;;;;;10.77;9.25;;;;;;;22.92;64.80;94300.53;5095592;28;20207;-70
2022/08/22 10:02:59;;;;;;;11.07;9.57;;;;;;;23.06;64.86;94289.59;5094376;28;20269;-70
2022/08/22 10:05:30;;;;;;;10.13;9.13;;;;;;;23.22;64.26;94291.47;5095638;28;20196;-70
2022/08/22 10:08:14;;;;;;;10.80;9.50;;;;;;;23.43;65.22;94281.50;5095523;28;20203;-70
2022/08/22 10:11:05;;;;;;;9.98;9.07;;;;;;;23.62;63.99;94274.00;5095141;28;20215;-69
2022/08/22 10:13:39;;;;;;;10.82;9.82;;;;;;;23.82;63.00;94272.91;5079193;28;20647;-72
2022/08/22 10:16:18;;;;;;;10.18;9.18;;;;;;;23.86;62.11;94274.38;5094156;28;20223;-72
2022/08/22 10:18:51;;;;;;;12.70;9.32;;;;;;;23.84;61.53;94274.03;5095493;28;20249;-73
2022/08/22 10:21:23;;;;;;;10.80;9.77;;;;;;;23.90;62.16;94280.66;5094350;28;20519;-73
2022/08/22 10:23:53;;;;;;;11.18;9.98;;;;;;;23.86;61.49;94265.16;5095036;28;20177;-72
2022/08/22 10:26:30;;;;;;;10.70;9.60;;;;;;;23.73;61.10;94262.38;5095153;28;20177;-71
2022/08/22 10:29:05;;;;;;;10.90;9.73;;;;;;;23.63;61.34;94261.47;5095507;28;20308;-70
2022/08/22 10:31:39;;;;;;;11.98;9.35;;;;;;;23.57;62.08;94257.69;5094865;28;20187;-69
2022/08/22 10:34:10;;;;;;;10.60;9.57;;;;;;;23.57;61.86;94260.53;5098786;28;20253;-69
2022/08/22 10:36:45;;;;;;;11.35;10.23;;;;;;;23.76;62.94;94255.84;5097788;28;20192;-70
2022/08/22 10:39:19;;;;;;;10.85;9.77;;;;;;;23.97;61.92;94252.22;5098059;28;20522;-71
2022/08/22 10:42:00;;;;;;;10.80;9.80;;;;;;;24.15;61.31;94254.38;5097882;28;20207;-70
2022/08/22 10:44:33;;;;;;;10.75;9.57;;;;;;;24.23;58.89;94235.94;5098341;28;20192;-70
2022/08/22 10:47:05;;;;;;;10.77;9.77;;;;;;;24.29;59.73;94235.31;5098218;28;20597;-71
2022/08/22 10:49:34;;;;;;;10.50;9.50;;;;;;;24.39;60.44;94231.31;5098898;28;20704;-71
2022/08/22 10:52:04;;;;;;;11.02;9.98;;;;;;;24.48;60.51;94237.03;5098367;28;20253;-70
2022/08/22 10:54:40;;;;;;;11.45;9.63;;;;;;;24.59;59.64;94228.94;5098477;28;20224;-70
2022/08/22 10:57:23;;;;;;;9.68;8.70;;;;;;;24.75;60.19;94236.34;5099764;28;20200;-71
2022/08/22 10:59:57;;;;;;;9.82;8.82;;;;;;;24.68;59.38;94236.63;5099398;28;20192;-72
2022/08/22 11:02:44;;;;;;;10.32;9.32;;;;;;;24.63;58.63;94235.19;5098704;28;20201;-71
2022/08/22 11:05:31;;;;;;;9.38;8.57;;;;;;;24.77;58.92;94233.84;5088800;28;20216;-71
2022/08/22 11:08:28;;;;;;;10.68;8.55;;;;;;;24.89;59.35;94237.78;5098386;28;20218;-71
2022/08/22 11:11:21;;;;;;;10.23;9.20;;;;;;;25.05;59.18;94234.66;5098834;28;20213;-71
2022/08/22 11:14:10;;;;;;;9.18;8.38;;;;;;;25.02;57.47;94223.53;5099929;28;20223;-71
2022/08/22 11:16:48;;;;;;;9.40;8.52;;;;;;;24.97;56.91;94217.25;5099269;28;20212;-70
2022/08/22 11:19:47;;;;;;;11.60;8.65;;;;;;;25.03;58.64;94230.78;5100393;28;20191;-70
2022/08/22 11:22:27;;;;;;;10.57;9.57;;;;;;;25.22;57.41;94235.22;5098253;28;20227;-70
2022/08/22 11:25:14;;;;;;;10.10;9.10;;;;;;;25.26;56.46;94220.94;5099702;28;20644;-70
2022/08/22 11:27:49;;;;;;;9.95;8.80;;;;;;;25.20;56.32;94215.94;5100710;28;20195;-70
2022/08/22 11:30:22;;;;;;;10.05;8.95;;;;;;;25.24;57.63;94209.34;5098214;28;20339;-72
2022/08/22 11:33:11;;;;;;;10.20;9.13;;;;;;;25.22;56.72;94221.09;5097014;28;20196;-71
2022/08/22 11:35:42;;;;;;;9.13;8.25;;;;;;;25.23;56.98;94216.25;5097937;28;20212;-70
2022/08/22 11:38:19;;;;;;;10.90;8.93;;;;;;;25.39;56.10;94218.78;5099067;28;20192;-71
2022/08/22 11:40:54;;;;;;;11.48;9.23;;;;;;;25.47;55.64;94217.19;5098847;28;20200;-72
2022/08/22 11:43:55;;;;;;;9.93;9.02;;;;;;;25.42;55.46;94215.00;5097660;28;20188;-72
2022/08/22 11:46:29;;;;;;;9.50;8.57;;;;;;;25.28;55.31;94210.00;5098353;28;20184;-71
2022/08/22 11:49:22;;;;;;;9.57;8.75;;;;;;;25.13;55.75;94204.97;5097167;28;20231;-73
2022/08/22 11:52:05;;;;;;;9.45;8.48;;;;;;;25.03;55.76;94211.03;5097381;28;20188;-73
2022/08/22 11:54:39;;;;;;;9.05;8.13;;;;;;;24.95;55.75;94204.91;5097081;28;20532;-74
2022/08/22 11:57:08;;;;;;;9.57;8.68;;;;;;;24.86;55.87;94202.84;5096691;28;20192;-72
2022/08/22 12:00:00;;;;;;;10.00;9.00;;;;;;;24.79;56.77;94208.75;5098307;28;20215;-71
2022/08/22 12:02:41;;;;;;;9.25;8.45;;;;;;;24.70;56.88;94212.34;5098082;28;20246;-73
2022/08/22 12:05:11;;;;;;;10.13;9.18;;;;;;;24.60;58.29;94213.56;5097961;28;20184;-72
2022/08/22 12:07:44;;;;;;;12.30;9.07;;;;;;;24.48;59.95;94220.13;5097901;28;20552;-70
2022/08/22 12:10:14;;;;;;;11.18;10.07;;;;;;;24.37;62.09;94214.09;5098154;28;20271;-70
2022/08/22 12:12:55;;;;;;;10.70;9.70;;;;;;;24.24;62.88;94222.63;5096130;28;20192;-71
2022/08/22 12:15:24;;;;;;;10.95;9.63;;;;;;;24.14;63.00;94204.88;5096825;28;20212;-71
2022/08/22 12:18:26;;;;;;;10.20;9.30;;;;;;;24.06;63.51;94197.97;5097074;28;20188;-73
2022/08/22 12:21:09;;;;;;;11.95;9.90;;;;;;;24.05;64.06;94201.25;5068660;28;20216;-72
2022/08/22 12:24:06;;;;;;;10.55;9.50;;;;;;;24.14;63.49;94204.13;5096286;28;20215;-71